createdAt,value
2022-11-16T00:00:05.661Z,94835.13
2022-11-16T00:02:33.366Z,94838.38
2022-11-16T00:05:00.250Z,94833.94
2022-11-16T00:07:27.059Z,94838.13
2022-11-16T00:09:54.108Z,94831.63
2022-11-16T00:12:20.859Z,94827.09
2022-11-16T00:14:47.644Z,94831.16
2022-11-16T00:17:14.558Z,94825.91
2022-11-16T00:19:41.346Z,94831.59
2022-11-16T00:22:08.255Z,94827.41
2022-11-16T00:24:35.146Z,94817.97
2022-11-16T00:27:01.948Z,94817.84
2022-11-16T00:29:28.887Z,94821.88
2022-11-16T00:31:55.941Z,94816.66
2022-11-16T00:34:24.147Z,94816.66
2022-11-16T00:36:51.892Z,94818.84
2022-11-16T00:39:19.370Z,94823.16
2022-11-16T00:41:47.096Z,94817.09
2022-11-16T00:44:14.577Z,94818.03
2022-11-16T00:46:42.056Z,94811.41
2022-11-16T00:49:09.885Z,94816.28
2022-11-16T00:51:37.487Z,94817.22
2022-11-16T00:54:06.965Z,94809.66
2022-11-16T00:56:35.775Z,94809.91
2022-11-16T00:59:02.665Z,94797.63
2022-11-16T01:01:29.825Z,94798.44
2022-11-16T01:03:56.718Z,94795.88
2022-11-16T01:06:23.670Z,94788.56
2022-11-16T01:08:51.322Z,94779.50
2022-11-16T01:11:37.950Z,94785.31
2022-11-16T01:14:07.292Z,94789.06
2022-11-16T01:16:35.808Z,94776.09
2022-11-16T01:19:03.201Z,94766.34
2022-11-16T01:21:30.184Z,94763.91
2022-11-16T01:23:57.425Z,94779.25
2022-11-16T01:26:25.310Z,94790.31
2022-11-16T01:28:52.705Z,94778.69
2022-11-16T01:31:20.236Z,94783.13
2022-11-16T01:33:49.602Z,94772.47
2022-11-16T01:36:21.755Z,94775.03
2022-11-16T01:38:49.020Z,94769.22
2022-11-16T01:41:22.482Z,94768.75
2022-11-16T01:44:02.896Z,94772.69
2022-11-16T01:46:36.676Z,94773.63
2022-11-16T01:49:14.736Z,94775.13
2022-11-16T01:51:46.265Z,94777.13
2022-11-16T01:54:14.866Z,94768.75
2022-11-16T01:57:00.808Z,94766.31
2022-11-16T01:59:55.416Z,94768.31
2022-11-16T02:02:24.016Z,94759.97
2022-11-16T02:04:52.794Z,94759.00
2022-11-16T02:08:23.735Z,94752.31
2022-11-16T02:11:09.849Z,94737.88
2022-11-16T02:13:58.489Z,94738.13
2022-11-16T02:16:40.318Z,94728.38
2022-11-16T02:19:46.486Z,94732.94
2022-11-16T02:22:43.921Z,94733.88
2022-11-16T02:25:31.639Z,94735.19
2022-11-16T02:28:33.823Z,94740.53
2022-11-16T02:31:05.669Z,94734.72
2022-11-16T02:33:37.323Z,94739.97
2022-11-16T02:36:09.531Z,94740.56
2022-11-16T02:38:40.665Z,94740.69
2022-11-16T02:41:12.797Z,94731.78
2022-11-16T02:43:44.937Z,94730.97
2022-11-16T02:46:19.624Z,94733.19
2022-11-16T02:48:56.187Z,94729.94
2022-11-16T02:51:24.609Z,94733.00
2022-11-16T02:54:01.725Z,94724.41
2022-11-16T02:56:30.210Z,94721.28
2022-11-16T02:58:59.702Z,94729.31
2022-11-16T03:01:38.580Z,94728.84
2022-11-16T03:04:14.869Z,94725.84
2022-11-16T03:06:46.135Z,94724.44
2022-11-16T03:09:19.384Z,94708.47
2022-11-16T03:12:00.133Z,94717.75
2022-11-16T03:14:34.025Z,94705.66
2022-11-16T03:17:02.821Z,94689.91
2022-11-16T03:19:39.939Z,94697.94
2022-11-16T03:22:22.612Z,94716.16
2022-11-16T03:24:49.552Z,94715.34
2022-11-16T03:27:32.337Z,94711.84
2022-11-16T03:30:03.418Z,94710.47
2022-11-16T03:32:33.984Z,94699.09
2022-11-16T03:35:27.308Z,94709.88
2022-11-16T03:37:58.478Z,94708.38
2022-11-16T03:40:30.885Z,94690.19
2022-11-16T03:43:01.241Z,94702.44
2022-11-16T03:45:29.341Z,94705.94
2022-11-16T05:37:38.903Z,94647.41
2022-11-16T05:40:07.583Z,94654.31
2022-11-16T05:42:43.886Z,94641.44
2022-11-16T05:45:10.794Z,94645.84
2022-11-16T05:47:37.772Z,94649.63
2022-11-16T05:50:04.967Z,94655.19
2022-11-16T05:52:38.073Z,94647.28
2022-11-16T05:55:08.849Z,94650.03
2022-11-16T05:57:41.657Z,94650.34
2022-11-16T06:00:09.789Z,94648.25
2022-11-16T06:02:42.825Z,94653.41
2022-11-16T06:05:19.079Z,94648.75
2022-11-16T07:29:10.321Z,94617.34
2022-11-16T07:31:41.916Z,94617.91
2022-11-16T07:34:28.996Z,94621.41
2022-11-16T07:37:06.075Z,94629.66
2022-11-16T07:39:33.236Z,94616.03
2022-11-16T07:42:00.188Z,94621.97
2022-11-16T07:44:43.235Z,94626.28
2022-11-16T07:47:10.902Z,94619.22
2022-11-16T07:49:37.748Z,94617.22
2022-11-16T07:52:14.658Z,94618.28
2022-11-16T07:55:07.986Z,94612.31
2022-11-16T07:57:35.214Z,94611.38
2022-11-16T08:00:06.947Z,94618.94
2022-11-16T08:02:53.727Z,94605.69
2022-11-16T08:05:21.230Z,94601.63
2022-11-16T08:07:50.158Z,94602.81
2022-11-16T08:10:18.698Z,94602.13
2022-11-16T08:12:46.035Z,94604.78
2022-11-16T08:15:14.302Z,94595.06
2022-11-16T08:17:42.232Z,94588.03
2022-11-16T08:20:11.897Z,94589.91
2022-11-16T08:22:39.019Z,94577.97
2022-11-16T08:25:07.089Z,94584.69
2022-11-16T08:27:34.065Z,94588.13
2022-11-16T08:30:03.396Z,94577.97
2022-11-16T08:32:30.737Z,94569.66
2022-11-16T08:34:57.718Z,94574.22
2022-11-16T08:37:26.220Z,94573.38
2022-11-16T08:39:53.405Z,94572.63
2022-11-16T08:42:21.144Z,94571.91
2022-11-16T08:44:49.652Z,94573.69
2022-11-16T08:47:19.115Z,94569.75
2022-11-16T08:49:52.455Z,94566.41
2022-11-16T08:52:20.881Z,94568.41
2022-11-16T08:54:49.758Z,94562.22
2022-11-16T08:57:17.412Z,94571.75
2022-11-16T08:59:47.077Z,94555.56
2022-11-16T09:02:14.416Z,94561.13
2022-11-16T09:04:41.357Z,94565.34
2022-11-16T09:07:08.172Z,94553.50
2022-11-16T09:09:36.248Z,94540.50
2022-11-16T09:12:03.091Z,94546.41
2022-11-16T09:14:30.819Z,94547.09
2022-11-16T09:16:57.765Z,94526.66
2022-11-16T09:19:24.576Z,94535.59
2022-11-16T09:21:51.541Z,94527.56
2022-11-16T09:24:18.354Z,94528.88
2022-11-16T09:26:45.212Z,94516.66
2022-11-16T09:29:14.662Z,94513.28
2022-11-16T09:31:41.632Z,94510.56
2022-11-16T09:34:08.668Z,94499.28
2022-11-16T09:36:35.594Z,94503.44
2022-11-16T09:39:28.812Z,94485.31
2022-11-16T09:42:02.112Z,94488.34
2022-11-16T09:44:40.729Z,94489.31
2022-11-16T09:47:21.835Z,94485.91
2022-11-16T09:49:58.131Z,94478.91
2022-11-16T09:52:39.709Z,94475.19
2022-11-16T09:55:24.437Z,94469.19
2022-11-16T09:57:54.652Z,94468.19
2022-11-16T10:00:23.891Z,94450.59
2022-11-16T10:02:58.342Z,94447.22
2022-11-16T10:05:28.006Z,94444.56
2022-11-16T10:08:20.337Z,94439.03
2022-11-16T10:11:01.213Z,94436.00
2022-11-16T10:13:34.356Z,94421.25
2022-11-16T10:16:04.933Z,94426.88
2022-11-16T10:18:47.327Z,94419.63
2022-11-16T10:21:28.869Z,94405.47
2022-11-16T10:24:14.342Z,94409.81
2022-11-16T10:26:59.662Z,94403.22
2022-11-16T10:29:38.537Z,94395.88
2022-11-16T10:32:14.082Z,94390.22
2022-11-16T10:35:00.678Z,94386.84
2022-11-16T10:37:33.213Z,94386.31
2022-11-16T10:40:11.730Z,94383.97
2022-11-16T10:42:41.070Z,94393.38
2022-11-16T10:45:11.295Z,94390.31
2022-11-16T10:47:52.264Z,94386.63
2022-11-16T10:50:39.855Z,94377.84
2022-11-16T10:53:07.084Z,94372.56
2022-11-16T10:55:33.887Z,94368.75
2022-11-16T10:58:03.095Z,94360.09
2022-11-16T11:00:34.596Z,94362.94
2022-11-16T11:03:01.535Z,94347.16
2022-11-16T11:05:28.503Z,94354.66
2022-11-16T11:08:05.018Z,94348.66
2022-11-16T11:10:37.234Z,94350.94
2022-11-16T11:13:13.064Z,94345.06
2022-11-16T11:15:41.586Z,94335.66
2022-11-16T11:18:17.562Z,94339.53
2022-11-16T11:20:47.007Z,94333.06
2022-11-16T11:23:18.640Z,94321.31
2022-11-16T11:26:03.554Z,94320.50
2022-11-16T11:28:32.826Z,94314.00
2022-11-16T11:31:01.767Z,94307.28
2022-11-16T11:33:50.268Z,94307.53
2022-11-16T11:36:22.934Z,94300.13
2022-11-16T11:39:04.607Z,94301.09
2022-11-16T11:41:36.721Z,94289.25
2022-11-16T11:44:14.951Z,94296.31
2022-11-16T11:49:55.482Z,94291.34
2022-11-16T11:52:55.147Z,94283.25
2022-11-16T11:55:22.314Z,94270.41
2022-11-16T11:57:53.821Z,94259.56
2022-11-16T12:00:21.158Z,94274.06
2022-11-16T12:03:04.158Z,94269.63
2022-11-16T12:06:08.593Z,94269.81
2022-11-16T12:08:41.471Z,94272.16
2022-11-16T12:11:17.473Z,94266.09
2022-11-16T12:14:02.996Z,94270.84
2022-11-16T12:16:37.330Z,94267.81
2022-11-16T12:19:25.486Z,94256.66
2022-11-16T12:22:29.355Z,94251.38
2022-11-16T12:25:05.326Z,94241.78
2022-11-16T12:27:38.205Z,94241.53
2022-11-16T12:30:20.638Z,94246.69
2022-11-16T12:33:14.108Z,94241.53
2022-11-16T12:35:40.998Z,94233.75
2022-11-16T12:38:10.765Z,94236.78
2022-11-16T12:40:59.480Z,94227.81
2022-11-16T12:43:29.332Z,94218.88
2022-11-16T12:46:03.322Z,94226.13
2022-11-16T12:49:05.600Z,94217.25
2022-11-16T12:52:04.754Z,94212.38
2022-11-16T12:55:24.107Z,94212.03
2022-11-16T12:57:57.757Z,94207.84
2022-11-16T13:00:24.690Z,94206.69
2022-11-16T13:03:04.255Z,94200.50
2022-11-16T13:05:54.873Z,94205.69
2022-11-16T13:08:41.890Z,94208.47
2022-11-16T13:11:26.033Z,94194.53
2022-11-16T13:14:00.561Z,94197.75
2022-11-16T13:16:28.041Z,94202.13
2022-11-16T13:18:56.159Z,94201.94
2022-11-16T13:21:36.646Z,94193.78
2022-11-16T13:24:22.071Z,94187.63
2022-11-16T13:26:59.308Z,94193.19
2022-11-16T13:29:37.814Z,94186.81
2022-11-16T13:32:22.526Z,94181.09
2022-11-16T13:34:50.453Z,94164.31
2022-11-16T13:37:38.786Z,94175.94
2022-11-16T13:40:05.599Z,94183.09
2022-11-16T13:43:01.593Z,94184.88
2022-11-16T13:45:36.238Z,94184.28
2022-11-16T13:48:15.790Z,94197.25
2022-11-16T13:50:48.864Z,94178.69
2022-11-16T13:56:21.828Z,94178.25
2022-11-16T13:58:55.393Z,94158.63
2022-11-16T14:01:23.880Z,94186.63
2022-11-16T14:04:12.251Z,94182.44
2022-11-16T14:06:44.775Z,94168.50
2022-11-16T14:10:05.776Z,94185.03
2022-11-16T14:12:38.515Z,94174.06
2022-11-16T14:15:23.834Z,94173.06
2022-11-16T14:17:58.375Z,94176.63
2022-11-16T14:20:44.319Z,94169.06
2022-11-16T14:23:55.464Z,94170.22
2022-11-16T14:26:43.417Z,94171.56
2022-11-16T14:29:35.004Z,94172.97
2022-11-16T14:32:04.565Z,94157.78
2022-11-16T14:34:42.470Z,94163.69
2022-11-16T14:37:31.453Z,94162.47
2022-11-16T14:40:15.897Z,94164.47
2022-11-16T14:45:40.279Z,94168.78
2022-11-16T14:48:19.714Z,94167.97
2022-11-16T14:51:02.530Z,94169.50
2022-11-16T14:53:30.841Z,94166.69
2022-11-16T14:56:12.131Z,94170.84
2022-11-16T14:58:39.645Z,94160.94
2022-11-16T15:01:14.174Z,94152.31
2022-11-16T15:03:48.629Z,94156.69
2022-11-16T15:06:15.898Z,94152.06
2022-11-16T15:08:48.337Z,94154.66
2022-11-16T15:11:47.230Z,94155.81
2022-11-16T15:14:25.631Z,94152.78
2022-11-16T15:16:54.978Z,94156.19
2022-11-16T15:19:22.993Z,94152.59
2022-11-16T15:21:58.129Z,94149.38
2022-11-16T15:24:30.957Z,94143.78
2022-11-16T15:27:09.210Z,94141.72
2022-11-16T15:29:36.401Z,94147.78
2022-11-16T15:32:03.660Z,94138.59
2022-11-16T15:34:31.366Z,94139.41
2022-11-16T15:36:58.184Z,94138.59
2022-11-16T15:39:32.200Z,94140.19
2022-11-16T15:42:03.753Z,94142.00
2022-11-16T15:44:32.989Z,94144.41
2022-11-16T15:47:00.106Z,94148.78
2022-11-16T15:49:30.496Z,94147.16
2022-11-16T15:51:58.813Z,94137.19
2022-11-16T15:54:31.306Z,94153.69
2022-11-16T15:57:08.257Z,94146.91
2022-11-16T15:59:37.234Z,94142.09
2022-11-16T16:02:04.863Z,94144.50
2022-11-16T16:04:31.838Z,94144.06
2022-11-16T16:07:00.325Z,94149.50
2022-11-16T16:09:31.639Z,94148.06
2022-11-16T16:12:20.346Z,94141.47
2022-11-16T16:14:49.320Z,94144.06
2022-11-16T16:17:30.090Z,94141.66
2022-11-16T16:20:02.119Z,94144.25
2022-11-16T16:22:32.814Z,94153.25
2022-11-16T16:25:00.790Z,94147.28
2022-11-16T16:27:30.296Z,94149.59
2022-11-16T16:29:59.136Z,94151.19
2022-11-16T16:32:27.090Z,94153.59
2022-11-16T16:34:55.850Z,94150.94
2022-11-16T16:37:23.664Z,94158.09
2022-11-16T16:39:50.443Z,94154.09
2022-11-16T16:42:18.144Z,94152.41
2022-11-16T16:44:46.437Z,94154.28
2022-11-16T16:47:14.259Z,94149.81
2022-11-16T16:49:41.117Z,94139.47
2022-11-16T16:52:11.372Z,94142.25
2022-11-16T16:54:38.276Z,94146.25
2022-11-16T16:57:05.150Z,94128.22
2022-11-16T16:59:32.304Z,94147.16
2022-11-16T17:01:59.975Z,94144.75
2022-11-16T17:04:27.008Z,94152.16
2022-11-16T17:06:54.357Z,94145.31
2022-11-16T17:09:21.332Z,94146.09
2022-11-16T17:11:48.398Z,94135.22
2022-11-16T17:14:15.217Z,94141.56
2022-11-16T17:16:42.007Z,94134.72
2022-11-16T17:19:08.833Z,94134.81
2022-11-16T17:21:35.629Z,94141.31
2022-11-16T17:24:02.599Z,94129.31
2022-11-16T17:26:29.689Z,94132.88
2022-11-16T17:28:57.792Z,94127.06
2022-11-16T17:31:26.242Z,94138.75
2022-11-16T17:33:53.041Z,94126.34
2022-11-16T17:36:20.712Z,94137.25
2022-11-16T17:38:47.547Z,94127.25
2022-11-16T17:41:17.054Z,94126.81
2022-11-16T17:43:45.331Z,94117.34
2022-11-16T17:46:15.441Z,94125.31
2022-11-16T17:48:44.996Z,94122.72
2022-11-16T17:51:13.465Z,94123.69
2022-11-16T17:53:41.051Z,94122.09
2022-11-16T17:56:08.249Z,94117.34
2022-11-16T17:58:35.132Z,94117.56
2022-11-16T18:01:02.091Z,94116.28
2022-11-16T18:03:28.971Z,94111.41
2022-11-16T18:06:03.093Z,94116.19
2022-11-16T18:08:30.472Z,94114.59
2022-11-16T18:10:57.327Z,94106.84
2022-11-16T18:13:24.104Z,94106.31
2022-11-16T18:15:50.895Z,94102.13
2022-11-16T18:18:18.274Z,94091.16
2022-11-16T18:20:50.872Z,94080.75
2022-11-16T18:23:17.919Z,94086.25
2022-11-16T18:25:44.713Z,94075.84
2022-11-16T18:28:11.541Z,94094.53
2022-11-16T18:30:38.981Z,94078.59
2022-11-16T18:33:05.782Z,94079.31
2022-11-16T18:35:32.629Z,94079.31
2022-11-16T18:37:59.478Z,94085.63
2022-11-16T18:40:26.346Z,94096.03
2022-11-16T18:42:53.377Z,94099.09
2022-11-16T18:45:20.369Z,94096.69
2022-11-16T18:47:47.198Z,94099.53
2022-11-16T18:50:20.038Z,94093.75
2022-11-16T18:52:52.027Z,94104.06
2022-11-16T18:55:18.829Z,94077.63
2022-11-16T18:57:45.625Z,94101.59
2022-11-16T19:00:15.236Z,94075.47
2022-11-16T19:02:42.130Z,94090.19
2022-11-16T19:05:09.133Z,94076.81
2022-11-16T19:07:36.064Z,94088.75
2022-11-16T19:10:03.031Z,94092.31
2022-11-16T19:12:31.842Z,94085.53
2022-11-16T19:14:58.983Z,94074.75
2022-11-16T19:17:27.142Z,94089.44
2022-11-16T19:19:54.069Z,94087.22
2022-11-16T19:22:20.961Z,94063.97
2022-11-16T19:24:47.793Z,94076.63
2022-11-16T19:27:14.679Z,94083.75
2022-11-16T19:29:41.531Z,94076.81
2022-11-16T19:32:08.437Z,94091.50
2022-11-16T19:34:35.563Z,94086.97
2022-11-16T19:37:02.326Z,94092.13
2022-11-16T19:39:29.261Z,94072.25
2022-11-16T19:41:56.070Z,94085.53
2022-11-16T19:44:22.879Z,94084.09
2022-11-16T19:46:49.722Z,94098.09
2022-11-16T19:49:20.089Z,94094.53
2022-11-16T19:51:48.006Z,94096.94
2022-11-16T19:54:15.232Z,94079.47
2022-11-16T19:56:43.104Z,94070.31
2022-11-16T19:59:10.276Z,94079.84
2022-11-16T20:01:37.173Z,94078.22
2022-11-16T20:04:04.333Z,94076.63
2022-11-16T20:06:34.030Z,94071.47
2022-11-16T20:09:08.642Z,94068.25
2022-11-16T20:11:37.314Z,94069.50
2022-11-16T20:14:05.955Z,94056.78
2022-11-16T20:16:39.045Z,94064.69
2022-11-16T20:19:10.127Z,94065.38
2022-11-16T20:21:41.850Z,94067.50
2022-11-16T20:24:12.109Z,94058.00
2022-11-16T20:26:44.097Z,94059.59
2022-11-16T20:29:16.432Z,94039.47
2022-11-16T20:31:45.601Z,94040.25
2022-11-16T20:34:14.865Z,94026.38
2022-11-16T20:36:44.140Z,94041.88
2022-11-16T20:39:16.765Z,94022.56
2022-11-16T20:41:44.248Z,94026.75
2022-11-16T20:44:16.676Z,94029.50
2022-11-16T20:46:47.985Z,94025.31
2022-11-16T20:49:15.108Z,94030.31
2022-11-16T20:51:42.040Z,94020.69
2022-11-16T20:54:09.187Z,94032.63
2022-11-16T20:56:36.291Z,94026.81
2022-11-16T20:59:03.556Z,94022.63
2022-11-16T21:01:35.213Z,94020.50
2022-11-16T21:04:05.324Z,94020.69
2022-11-16T21:06:32.991Z,94029.06
2022-11-16T21:09:00.724Z,94004.84
2022-11-16T21:11:30.032Z,94016.66
2022-11-16T21:14:16.233Z,94009.38
2022-11-16T21:16:43.270Z,94006.44
2022-11-16T21:19:10.598Z,94004.03
2022-11-16T21:21:38.322Z,94011.78
2022-11-16T21:24:05.292Z,94007.44
2022-11-16T21:26:33.188Z,94002.88
2022-11-16T21:29:01.488Z,94012.88
2022-11-16T21:31:31.248Z,93999.75
2022-11-16T21:34:00.785Z,93988.03
2022-11-16T21:36:31.315Z,93974.91
2022-11-16T21:38:58.533Z,94016.59
2022-11-16T21:41:25.979Z,93990.34
2022-11-16T21:43:53.230Z,93985.63
2022-11-16T21:46:22.560Z,94002.53
2022-11-16T21:48:51.259Z,93993.19
2022-11-16T21:51:20.082Z,93982.31
2022-11-16T21:53:46.976Z,93988.28
2022-11-16T21:56:16.462Z,93994.06
2022-11-16T21:58:46.652Z,93985.50
2022-11-16T22:01:16.107Z,93980.00
2022-11-16T22:03:44.844Z,93978.41
2022-11-16T22:06:33.027Z,93974.13
2022-11-16T22:09:01.064Z,93968.16
2022-11-16T22:11:28.201Z,93981.31
2022-11-16T22:13:55.144Z,93988.47
2022-11-16T22:16:24.722Z,93966.84
2022-11-16T22:18:51.589Z,93963.44
2022-11-16T22:21:18.473Z,93972.59
2022-11-16T22:23:45.378Z,93964.25
2022-11-16T22:26:14.045Z,93968.78
2022-11-16T22:28:40.866Z,93969.41
2022-11-16T22:31:14.946Z,93963.63
2022-11-16T22:33:42.385Z,93965.41
2022-11-16T22:36:10.488Z,93954.63
2022-11-16T22:38:39.283Z,93944.47
2022-11-16T22:41:06.262Z,93932.38
2022-11-16T22:43:33.562Z,93937.19
2022-11-16T22:46:02.415Z,93933.97
2022-11-16T22:48:33.695Z,93938.50
2022-11-16T22:51:06.841Z,93939.75
2022-11-16T22:53:34.868Z,93928.44
2022-11-16T22:56:07.392Z,93931.03
2022-11-16T22:58:35.524Z,93927.19
2022-11-16T23:01:02.915Z,93933.63
2022-11-16T23:03:30.149Z,93935.22
2022-11-16T23:05:57.182Z,93936.19
2022-11-16T23:08:25.079Z,93932.63
2022-11-16T23:11:21.521Z,93934.59
2022-11-16T23:14:07.658Z,93930.41
2022-11-16T23:16:34.867Z,93929.25
2022-11-16T23:19:02.091Z,93931.91
2022-11-16T23:21:47.398Z,93913.31
2022-11-16T23:24:33.744Z,93933.97
2022-11-16T23:27:22.243Z,93930.31
2022-11-16T23:29:49.358Z,93915.19
2022-11-16T23:32:16.139Z,93927.28
2022-11-16T23:34:42.970Z,93919.13
2022-11-16T23:37:09.855Z,93913.16
2022-11-16T23:39:36.644Z,93922.50
2022-11-16T23:42:22.218Z,93914.75
2022-11-16T23:44:50.082Z,93907.19
2022-11-16T23:47:16.897Z,93908.78
2022-11-16T23:49:43.706Z,93897.84
2022-11-16T23:52:10.867Z,93906.41
2022-11-16T23:54:37.763Z,93899.28
2022-11-16T23:57:05.195Z,93885.56
2022-11-16T23:59:32.436Z,93886.38
